createdAt,value
2022-10-22T00:00:06.930Z,20.20
2022-10-22T00:03:02.838Z,20.70
2022-10-22T00:05:39.317Z,19.40
2022-10-22T00:08:15.606Z,19.90
2022-10-22T00:10:52.920Z,19.50
2022-10-22T00:13:29.231Z,18.90
2022-10-22T00:16:05.226Z,18.60
2022-10-22T00:18:41.439Z,17.70
2022-10-22T00:21:17.327Z,18.80
2022-10-22T00:23:53.165Z,19.10
2022-10-22T00:26:29.223Z,18.90
2022-10-22T00:29:05.076Z,19.50
2022-10-22T00:31:40.970Z,19.10
2022-10-22T00:34:17.151Z,19.10
2022-10-22T00:36:54.383Z,18.80
2022-10-22T00:39:32.134Z,20.60
2022-10-22T00:42:08.597Z,20.40
2022-10-22T00:45:21.982Z,22.40
2022-10-22T00:48:05.709Z,22.10
2022-10-22T00:50:48.197Z,22.30
2022-10-22T00:53:31.300Z,20.80
2022-10-22T00:56:08.993Z,21.00
2022-10-22T00:58:51.280Z,21.60
2022-10-22T01:01:32.817Z,21.10
2022-10-22T01:04:08.864Z,21.20
2022-10-22T01:06:44.825Z,21.30
2022-10-22T01:09:33.964Z,21.30
2022-10-22T01:12:20.306Z,20.80
2022-10-22T01:15:17.050Z,20.30
2022-10-22T01:18:03.700Z,20.30
2022-10-22T01:21:04.711Z,21.60
2022-10-22T01:24:31.233Z,20.40
2022-10-22T01:27:32.925Z,21.00
2022-10-22T01:30:14.116Z,19.70
2022-10-22T01:32:57.344Z,19.90
2022-10-22T01:35:39.269Z,20.20
2022-10-22T01:40:55.849Z,19.30
2022-10-22T01:43:31.570Z,21.00
2022-10-22T01:46:13.509Z,19.80
2022-10-22T01:49:16.242Z,21.10
2022-10-22T01:52:16.702Z,20.60
2022-10-22T01:55:08.029Z,19.60
2022-10-22T01:57:58.104Z,20.90
2022-10-22T02:00:35.241Z,20.10
2022-10-22T02:03:22.817Z,20.10
2022-10-22T02:06:05.789Z,19.20
2022-10-22T02:11:18.422Z,19.90
2022-10-22T02:14:02.388Z,19.60
2022-10-22T02:16:43.962Z,18.80
2022-10-22T02:19:28.940Z,19.70
2022-10-22T02:22:05.509Z,19.50
2022-10-22T02:24:41.771Z,20.00
2022-10-22T02:27:28.169Z,19.00
2022-10-22T02:30:09.861Z,18.60
2022-10-22T02:32:56.750Z,18.60
2022-10-22T02:35:34.232Z,19.10
2022-10-22T02:38:11.707Z,19.00
2022-10-22T02:40:48.082Z,18.60
2022-10-22T02:43:26.626Z,19.30
2022-10-22T02:46:02.549Z,19.80
2022-10-22T02:48:38.373Z,19.10
2022-10-22T02:51:14.600Z,19.40
2022-10-22T02:53:50.431Z,19.20
2022-10-22T02:56:26.223Z,19.40
2022-10-22T02:59:02.149Z,18.80
2022-10-22T03:01:38.023Z,19.00
2022-10-22T03:04:14.077Z,19.40
2022-10-22T03:06:49.904Z,20.00
2022-10-22T03:09:25.891Z,20.10
2022-10-22T03:12:01.743Z,19.40
2022-10-22T03:14:37.764Z,18.90
2022-10-22T03:17:14.594Z,20.20
2022-10-22T03:19:50.456Z,21.20
2022-10-22T03:22:31.874Z,20.60
2022-10-22T03:25:17.545Z,20.50
2022-10-22T03:27:57.120Z,21.80
2022-10-22T03:30:33.078Z,19.80
2022-10-22T03:33:09.073Z,19.90
2022-10-22T03:35:49.674Z,21.80
2022-10-22T03:38:26.032Z,54.30
2022-10-22T03:41:02.081Z,24.30
2022-10-22T03:43:41.698Z,22.40
2022-10-22T03:46:17.454Z,21.40
2022-10-22T03:48:53.434Z,21.00
2022-10-22T03:51:31.057Z,20.30
2022-10-22T03:54:07.632Z,23.30
2022-10-22T03:56:43.600Z,23.00
2022-10-22T03:59:19.672Z,25.00
2022-10-22T04:01:55.463Z,24.10
2022-10-22T04:04:31.380Z,24.90
2022-10-22T04:07:08.248Z,24.10
2022-10-22T04:09:44.046Z,23.70
2022-10-22T04:12:19.855Z,23.30
2022-10-22T04:14:55.898Z,23.90
2022-10-22T04:17:36.267Z,25.40
2022-10-22T04:20:14.705Z,24.90
2022-10-22T04:22:50.584Z,23.50
2022-10-22T04:25:26.496Z,23.70
2022-10-22T04:28:02.449Z,25.80
2022-10-22T04:30:38.813Z,24.10
2022-10-22T04:33:14.779Z,25.00
2022-10-22T04:35:50.610Z,21.90
2022-10-22T04:38:26.629Z,24.20
2022-10-22T04:41:11.808Z,25.80
2022-10-22T04:43:48.323Z,25.80
2022-10-22T04:46:25.921Z,26.30
2022-10-22T04:49:03.829Z,25.50
2022-10-22T04:51:39.673Z,26.90
2022-10-22T04:54:15.576Z,26.90
2022-10-22T04:56:51.412Z,52.80
2022-10-22T04:59:27.301Z,76.60
2022-10-22T05:02:03.094Z,34.80
2022-10-22T05:04:38.979Z,30.70
2022-10-22T05:07:15.373Z,29.10
2022-10-22T05:09:51.285Z,28.30
2022-10-22T05:12:27.158Z,27.80
2022-10-22T05:15:03.381Z,28.00
2022-10-22T05:17:41.411Z,28.50
2022-10-22T05:20:18.504Z,29.20
2022-10-22T05:22:54.427Z,26.40
2022-10-22T05:25:31.214Z,25.70
2022-10-22T05:28:07.267Z,26.50
2022-10-22T05:30:43.113Z,26.20
2022-10-22T05:33:23.334Z,27.40
2022-10-22T05:36:00.699Z,28.50
2022-10-22T05:38:38.549Z,28.50
2022-10-22T05:41:18.236Z,28.10
2022-10-22T05:43:58.047Z,27.70
2022-10-22T05:46:39.433Z,27.90
2022-10-22T05:49:19.349Z,28.30
2022-10-22T05:51:55.171Z,28.90
2022-10-22T05:54:31.064Z,28.50
2022-10-22T05:57:07.018Z,27.60
2022-10-22T05:59:43.198Z,27.80
2022-10-22T06:02:19.171Z,28.30
2022-10-22T06:04:54.990Z,28.90
2022-10-22T06:07:31.331Z,29.40
2022-10-22T06:10:10.226Z,30.30
2022-10-22T06:12:47.215Z,29.50
2022-10-22T06:15:23.819Z,28.40
2022-10-22T06:17:59.608Z,30.50
2022-10-22T06:20:36.511Z,31.50
2022-10-22T06:23:12.403Z,29.80
2022-10-22T06:25:58.686Z,29.70
2022-10-22T06:28:36.483Z,28.90
2022-10-22T06:31:13.257Z,29.50
2022-10-22T06:33:48.967Z,28.80
2022-10-22T06:36:27.040Z,29.80
2022-10-22T06:39:03.248Z,29.80
2022-10-22T06:41:39.001Z,30.30
2022-10-22T06:44:19.283Z,30.40
2022-10-22T06:46:56.794Z,30.50
2022-10-22T06:49:33.039Z,28.60
2022-10-22T06:52:09.252Z,28.90
2022-10-22T06:54:45.748Z,28.90
2022-10-22T06:57:21.792Z,27.90
2022-10-22T06:59:57.644Z,26.60
2022-10-22T07:02:33.524Z,24.30
2022-10-22T07:05:11.546Z,24.60
2022-10-22T07:07:47.378Z,24.90
2022-10-22T07:10:25.979Z,23.60
2022-10-22T07:13:04.568Z,22.30
2022-10-22T07:15:40.427Z,21.40
2022-10-22T07:18:16.408Z,19.00
2022-10-22T07:20:52.896Z,18.90
2022-10-22T07:23:30.535Z,17.50
2022-10-22T07:26:08.693Z,17.10
2022-10-22T07:28:45.124Z,15.90
2022-10-22T07:31:22.117Z,18.00
2022-10-22T07:33:58.710Z,20.50
2022-10-22T07:36:34.785Z,19.60
2022-10-22T07:39:10.742Z,16.80
2022-10-22T07:41:46.652Z,16.70
2022-10-22T07:44:22.524Z,18.50
2022-10-22T07:46:58.207Z,26.00
2022-10-22T07:49:34.415Z,16.70
2022-10-22T07:52:10.949Z,15.60
2022-10-22T07:54:46.894Z,15.60
2022-10-22T07:57:23.073Z,15.70
2022-10-22T07:59:59.674Z,15.50
2022-10-22T08:02:35.638Z,15.20
2022-10-22T08:05:14.509Z,14.80
2022-10-22T08:07:50.469Z,15.80
2022-10-22T08:10:26.332Z,15.60
2022-10-22T08:13:02.490Z,16.20
2022-10-22T08:15:38.846Z,15.70
2022-10-22T08:18:14.849Z,16.40
2022-10-22T08:20:50.846Z,15.80
2022-10-22T08:23:28.719Z,17.60
2022-10-22T08:26:04.849Z,16.40
2022-10-22T08:28:41.237Z,16.20
2022-10-22T08:31:17.394Z,16.50
2022-10-22T08:33:53.658Z,16.20
2022-10-22T08:36:29.403Z,15.90
2022-10-22T08:39:05.469Z,16.80
2022-10-22T08:41:55.208Z,16.90
2022-10-22T08:45:04.642Z,17.70
2022-10-22T08:48:05.051Z,17.90
2022-10-22T08:50:47.293Z,18.60
2022-10-22T08:53:31.809Z,17.10
2022-10-22T08:56:08.136Z,16.00
2022-10-22T08:58:50.751Z,18.30
2022-10-22T09:01:37.469Z,16.50
2022-10-22T09:04:25.553Z,17.30
2022-10-22T09:07:03.202Z,18.30
2022-10-22T09:09:48.876Z,16.80
2022-10-22T09:12:28.410Z,18.20
2022-10-22T09:15:04.748Z,16.90
2022-10-22T09:17:59.941Z,17.20
2022-10-22T09:20:50.625Z,16.20
2022-10-22T09:23:39.147Z,17.00
2022-10-22T09:26:20.224Z,17.30
2022-10-22T09:29:00.730Z,27.60
2022-10-22T09:31:37.604Z,17.60
2022-10-22T09:34:17.460Z,16.00
2022-10-22T09:37:02.750Z,15.40
2022-10-22T09:39:48.161Z,15.60
2022-10-22T09:42:25.903Z,15.30
2022-10-22T09:45:04.381Z,14.30
2022-10-22T09:48:00.622Z,14.50
2022-10-22T09:50:48.588Z,13.80
2022-10-22T09:53:30.703Z,12.90
2022-10-22T09:56:29.719Z,12.30
2022-10-22T09:59:07.918Z,12.40
2022-10-22T10:01:44.581Z,13.10
2022-10-22T10:04:20.961Z,13.30
2022-10-22T10:07:00.264Z,15.70
2022-10-22T10:09:39.108Z,14.90
2022-10-22T10:12:37.039Z,13.90
2022-10-22T10:15:29.575Z,13.60
2022-10-22T10:18:19.865Z,14.40
2022-10-22T10:21:10.885Z,14.30
2022-10-22T10:23:59.645Z,15.50
2022-10-22T10:26:51.621Z,14.80
2022-10-22T10:32:45.283Z,14.30
2022-10-22T10:35:32.272Z,13.80
2022-10-22T10:38:33.431Z,21.10
2022-10-22T10:41:25.585Z,21.20
2022-10-22T10:44:26.149Z,18.50
2022-10-22T10:47:22.147Z,16.40
2022-10-22T10:50:17.792Z,15.40
2022-10-22T10:53:08.164Z,14.50
2022-10-22T10:56:00.946Z,14.50
2022-10-22T10:58:55.613Z,19.10
2022-10-22T11:01:43.938Z,31.40
2022-10-22T11:05:08.868Z,15.40
2022-10-22T11:07:56.142Z,14.10
2022-10-22T11:10:41.604Z,13.70
2022-10-22T11:13:27.512Z,13.70
2022-10-22T11:16:13.253Z,15.50
2022-10-22T11:18:58.899Z,14.70
2022-10-22T11:21:40.940Z,14.40
2022-10-22T11:27:11.694Z,13.40
2022-10-22T11:29:57.891Z,13.90
2022-10-22T11:32:34.562Z,15.10
2022-10-22T11:35:20.167Z,16.00
2022-10-22T11:38:00.772Z,14.70
2022-10-22T11:40:45.317Z,14.90
2022-10-22T11:43:36.344Z,14.30
2022-10-22T11:46:44.609Z,14.40
2022-10-22T11:49:43.792Z,13.10
2022-10-22T11:52:54.519Z,13.40
2022-10-22T11:55:49.311Z,13.00
2022-10-22T11:58:44.044Z,14.70
2022-10-22T12:01:43.958Z,15.30
2022-10-22T12:04:43.207Z,15.50
2022-10-22T12:07:51.711Z,17.70
2022-10-22T12:10:36.167Z,17.40
2022-10-22T12:13:26.073Z,17.70
2022-10-22T12:16:06.701Z,17.30
2022-10-22T12:18:47.134Z,17.30
2022-10-22T12:21:23.080Z,16.20
2022-10-22T12:23:59.468Z,17.00
2022-10-22T12:26:36.675Z,17.50
2022-10-22T12:29:18.560Z,18.10
2022-10-22T12:34:29.512Z,16.70
2022-10-22T12:37:08.857Z,17.20
2022-10-22T12:39:45.994Z,16.60
2022-10-22T12:42:23.901Z,17.10
2022-10-22T12:45:01.905Z,18.90
2022-10-22T12:47:37.839Z,17.50
2022-10-22T12:50:24.226Z,17.60
2022-10-22T12:53:00.376Z,17.10
2022-10-22T12:55:39.335Z,17.40
2022-10-22T12:58:23.325Z,17.50
2022-10-22T13:01:02.972Z,17.00
2022-10-22T13:03:45.919Z,17.60
2022-10-22T13:06:31.168Z,18.10
2022-10-22T13:09:23.895Z,17.60
2022-10-22T13:12:10.756Z,18.10
2022-10-22T13:14:49.006Z,24.20
2022-10-22T13:17:42.921Z,21.70
2022-10-22T13:20:26.697Z,20.60
2022-10-22T13:23:05.951Z,18.80
2022-10-22T13:25:42.307Z,18.00
2022-10-22T13:28:26.877Z,18.10
2022-10-22T13:31:11.063Z,17.80
2022-10-22T13:33:54.932Z,18.30
2022-10-22T13:36:31.045Z,18.10
2022-10-22T13:39:13.874Z,18.50
2022-10-22T13:41:51.326Z,18.20
2022-10-22T13:44:26.980Z,19.50
2022-10-22T13:47:02.843Z,19.80
2022-10-22T13:49:40.381Z,18.30
2022-10-22T13:52:30.940Z,18.60
2022-10-22T13:55:16.551Z,19.80
2022-10-22T13:57:53.436Z,19.40
2022-10-22T14:00:31.237Z,19.90
2022-10-22T14:03:10.609Z,19.70
2022-10-22T14:05:48.853Z,18.70
2022-10-22T14:08:28.254Z,20.10
2022-10-22T14:11:04.141Z,20.20
2022-10-22T14:13:40.712Z,20.40
2022-10-22T14:16:25.539Z,19.10
2022-10-22T14:19:02.293Z,20.20
2022-10-22T14:21:40.274Z,19.60
2022-10-22T14:24:17.785Z,20.30
2022-10-22T14:26:53.971Z,20.80
2022-10-22T14:29:30.600Z,20.40
2022-10-22T14:32:07.654Z,20.40
2022-10-22T14:34:45.865Z,20.50
2022-10-22T14:37:25.340Z,20.90
2022-10-22T14:40:02.672Z,19.80
2022-10-22T14:42:44.147Z,19.20
2022-10-22T14:45:27.046Z,21.90
2022-10-22T14:48:02.859Z,21.40
2022-10-22T14:50:38.882Z,20.60
2022-10-22T14:53:16.777Z,21.20
2022-10-22T14:55:55.659Z,22.10
2022-10-22T14:58:33.819Z,20.30
2022-10-22T15:01:11.092Z,21.70
2022-10-22T15:03:47.006Z,21.60
2022-10-22T15:06:22.759Z,20.40
2022-10-22T15:08:58.650Z,22.50
2022-10-22T15:11:34.647Z,23.00
2022-10-22T15:14:10.615Z,22.40
2022-10-22T15:16:46.666Z,22.90
2022-10-22T15:19:22.356Z,22.50
2022-10-22T15:21:58.183Z,23.10
2022-10-22T15:24:34.362Z,24.50
2022-10-22T15:27:10.543Z,22.80
2022-10-22T15:29:47.344Z,23.50
2022-10-22T15:32:23.620Z,23.20
2022-10-22T15:35:00.329Z,23.10
2022-10-22T15:37:38.960Z,24.20
2022-10-22T15:40:16.894Z,23.80
2022-10-22T15:42:52.869Z,24.20
2022-10-22T15:45:28.987Z,24.40
2022-10-22T15:48:06.479Z,24.10
2022-10-22T15:50:44.465Z,25.50
2022-10-22T15:53:20.952Z,24.20
2022-10-22T15:55:57.002Z,24.60
2022-10-22T15:58:33.331Z,24.80
2022-10-22T16:01:15.811Z,24.80
2022-10-22T16:04:00.230Z,24.90
2022-10-22T16:06:41.361Z,25.90
2022-10-22T16:09:21.744Z,26.10
2022-10-22T16:11:58.473Z,26.60
2022-10-22T16:14:34.561Z,26.10
2022-10-22T16:17:10.488Z,26.60
2022-10-22T16:19:46.546Z,25.00
2022-10-22T16:22:22.214Z,24.80
2022-10-22T16:24:58.264Z,25.20
2022-10-22T16:27:34.212Z,24.90
2022-10-22T16:30:12.978Z,26.50
2022-10-22T16:32:48.784Z,26.70
2022-10-22T16:35:24.611Z,27.10
2022-10-22T16:38:00.369Z,28.50
2022-10-22T16:40:36.294Z,29.10
2022-10-22T16:43:12.203Z,29.20
2022-10-22T16:45:54.595Z,29.10
2022-10-22T16:48:30.343Z,30.30
2022-10-22T16:51:13.759Z,28.80
2022-10-22T16:53:50.317Z,28.10
2022-10-22T16:56:26.927Z,28.40
2022-10-22T16:59:03.423Z,28.50
2022-10-22T17:01:41.429Z,28.30
2022-10-22T17:04:18.320Z,29.70
2022-10-22T17:06:54.216Z,29.40
2022-10-22T17:09:30.121Z,28.80
2022-10-22T17:12:06.637Z,27.90
2022-10-22T17:14:42.710Z,28.90
2022-10-22T17:17:18.572Z,28.00
2022-10-22T17:19:54.507Z,30.30
2022-10-22T17:22:30.918Z,29.20
2022-10-22T17:25:22.029Z,33.20
2022-10-22T17:27:57.907Z,32.50
2022-10-22T17:30:38.859Z,29.40
2022-10-22T17:33:14.875Z,51.80
2022-10-22T17:35:52.814Z,30.90
2022-10-22T17:38:29.165Z,29.90
2022-10-22T17:41:06.952Z,28.70
2022-10-22T17:46:24.585Z,29.80
2022-10-22T17:49:05.132Z,29.40
2022-10-22T17:51:41.579Z,30.70
2022-10-22T17:54:18.061Z,29.10
2022-10-22T17:56:53.726Z,32.10
2022-10-22T17:59:30.596Z,38.40
2022-10-22T18:02:06.944Z,40.50
2022-10-22T18:04:43.253Z,34.90
2022-10-22T18:07:20.800Z,33.30
2022-10-22T18:09:56.897Z,31.30
2022-10-22T18:12:32.709Z,28.60
2022-10-22T18:15:10.647Z,39.50
2022-10-22T18:17:47.145Z,30.00
2022-10-22T18:20:23.339Z,31.30
2022-10-22T18:23:00.699Z,30.20
2022-10-22T18:25:41.261Z,29.90
2022-10-22T18:28:19.441Z,29.70
2022-10-22T18:30:55.329Z,28.80
2022-10-22T18:33:32.525Z,27.60
2022-10-22T18:36:16.313Z,29.20
2022-10-22T18:38:56.558Z,27.90
2022-10-22T18:41:34.313Z,30.30
2022-10-22T18:44:13.704Z,26.60
2022-10-22T18:46:49.665Z,28.10
2022-10-22T18:49:25.824Z,27.80
2022-10-22T18:52:02.161Z,27.50
2022-10-22T18:54:40.218Z,27.60
2022-10-22T18:57:16.201Z,31.60
2022-10-22T18:59:54.656Z,33.90
2022-10-22T19:02:33.112Z,29.40
2022-10-22T19:05:10.637Z,29.40
2022-10-22T19:07:46.410Z,29.20
2022-10-22T19:10:22.730Z,26.20
2022-10-22T19:12:58.747Z,26.40
2022-10-22T19:15:34.546Z,24.60
2022-10-22T19:18:10.865Z,25.60
2022-10-22T19:20:48.915Z,24.80
2022-10-22T19:23:25.236Z,24.00
2022-10-22T19:26:12.078Z,24.00
2022-10-22T19:28:48.454Z,24.30
2022-10-22T19:31:27.541Z,23.40
2022-10-22T19:34:04.739Z,21.30
2022-10-22T19:36:41.075Z,23.10
2022-10-22T19:39:21.850Z,21.40
2022-10-22T19:41:57.604Z,21.10
2022-10-22T19:44:33.737Z,22.40
2022-10-22T19:47:10.287Z,20.90
2022-10-22T19:49:46.192Z,21.20
2022-10-22T19:52:22.226Z,20.30
2022-10-22T19:54:58.026Z,23.80
2022-10-22T19:57:35.136Z,22.70
2022-10-22T20:00:14.572Z,22.70
2022-10-22T20:02:51.235Z,21.30
2022-10-22T20:05:27.198Z,20.70
2022-10-22T20:08:03.720Z,22.20
2022-10-22T20:10:40.734Z,22.00
2022-10-22T20:13:23.351Z,22.90
2022-10-22T20:16:00.695Z,22.70
2022-10-22T20:18:38.604Z,23.00
2022-10-22T20:21:20.337Z,22.20
2022-10-22T20:23:59.554Z,23.00
2022-10-22T20:26:35.595Z,21.50
2022-10-22T20:29:14.225Z,23.30
2022-10-22T20:31:50.763Z,22.60
2022-10-22T20:34:26.924Z,23.80
2022-10-22T20:37:05.032Z,22.30
2022-10-22T20:39:40.987Z,23.90
2022-10-22T20:42:16.886Z,22.90
2022-10-22T20:44:53.586Z,22.80
2022-10-22T20:47:39.314Z,21.80
2022-10-22T20:50:31.437Z,23.10
2022-10-22T20:53:07.961Z,22.70
2022-10-22T20:55:43.947Z,22.10
2022-10-22T20:58:23.351Z,23.00
2022-10-22T21:01:09.586Z,22.40
2022-10-22T21:03:46.235Z,23.90
2022-10-22T21:06:23.359Z,21.80
2022-10-22T21:08:59.435Z,23.90
2022-10-22T21:11:35.296Z,24.00
2022-10-22T21:14:14.104Z,24.10
2022-10-22T21:16:52.939Z,23.50
2022-10-22T21:19:29.169Z,24.60
2022-10-22T21:22:04.878Z,25.70
2022-10-22T21:24:41.238Z,24.60
2022-10-22T21:27:17.025Z,24.90
2022-10-22T21:29:52.876Z,26.60
2022-10-22T21:32:28.901Z,24.00
2022-10-22T21:35:04.919Z,23.80
2022-10-22T21:37:41.108Z,24.90
2022-10-22T21:40:18.517Z,25.60
2022-10-22T21:42:55.329Z,24.50
2022-10-22T21:45:31.545Z,25.70
2022-10-22T21:48:08.424Z,24.40
2022-10-22T21:50:47.301Z,25.80
2022-10-22T21:53:23.856Z,24.70
2022-10-22T21:55:59.912Z,25.40
2022-10-22T21:58:38.476Z,25.10
2022-10-22T22:01:15.774Z,24.60
2022-10-22T22:03:53.989Z,24.30
2022-10-22T22:06:33.304Z,24.50
2022-10-22T22:09:10.460Z,25.00
2022-10-22T22:11:46.976Z,24.60
2022-10-22T22:14:22.797Z,23.70
2022-10-22T22:16:58.648Z,25.00
2022-10-22T22:19:34.479Z,25.20
2022-10-22T22:22:10.449Z,23.50
2022-10-22T22:24:46.554Z,23.70
2022-10-22T22:27:22.352Z,24.10
2022-10-22T22:29:59.307Z,23.10
2022-10-22T22:32:35.299Z,24.10
2022-10-22T22:35:13.219Z,23.30
2022-10-22T22:37:49.087Z,23.50
2022-10-22T22:40:49.147Z,23.40
2022-10-22T22:43:25.047Z,22.60
2022-10-22T22:46:09.746Z,23.90
2022-10-22T22:48:45.482Z,23.90
2022-10-22T22:51:21.931Z,22.30
2022-10-22T22:54:00.313Z,22.70
2022-10-22T22:56:38.140Z,22.20
2022-10-22T22:59:14.745Z,21.80
2022-10-22T23:01:52.390Z,22.60
2022-10-22T23:04:30.364Z,21.90
2022-10-22T23:07:06.410Z,22.80
2022-10-22T23:09:42.543Z,22.50
2022-10-22T23:12:18.406Z,22.00
2022-10-22T23:14:57.031Z,23.90
2022-10-22T23:20:14.170Z,22.30
2022-10-22T23:22:50.343Z,22.40
2022-10-22T23:25:27.120Z,20.70
2022-10-22T23:28:03.118Z,21.10
2022-10-22T23:30:45.594Z,20.80
2022-10-22T23:33:21.845Z,21.40
2022-10-22T23:35:57.765Z,20.40
2022-10-22T23:38:41.268Z,19.90
2022-10-22T23:41:17.745Z,19.80
2022-10-22T23:43:54.083Z,20.60
2022-10-22T23:46:30.333Z,22.40
2022-10-22T23:49:07.981Z,22.00
2022-10-22T23:51:44.386Z,21.30
2022-10-22T23:54:21.886Z,20.50
2022-10-22T23:56:58.061Z,20.60
2022-10-22T23:59:36.358Z,20.60
